createdAt,value
2018-06-10T00:02:06.186Z,5.07
2018-06-10T00:04:33.437Z,4.47
2018-06-10T00:07:00.685Z,4.57
2018-06-10T00:09:27.933Z,7.07
2018-06-10T00:11:55.217Z,6.50
2018-06-10T00:14:22.468Z,4.30
2018-06-10T00:16:49.828Z,4.97
2018-06-10T00:19:17.053Z,4.23
2018-06-10T00:21:44.333Z,4.83
2018-06-10T00:24:11.635Z,4.87
2018-06-10T00:26:38.894Z,5.90
2018-06-10T00:29:11.625Z,5.57
2018-06-10T00:31:38.875Z,5.07
2018-06-10T00:34:06.133Z,5.00
2018-06-10T00:36:33.389Z,4.93
2018-06-10T00:39:00.613Z,4.80
2018-06-10T00:41:27.858Z,5.20
2018-06-10T00:43:55.113Z,5.00
2018-06-10T00:46:22.357Z,4.83
2018-06-10T00:48:49.584Z,5.17
2018-06-10T00:51:16.824Z,4.57
2018-06-10T00:53:44.110Z,4.87
2018-06-10T00:56:17.139Z,4.90
2018-06-10T00:58:44.386Z,4.10
2018-06-10T01:01:11.637Z,4.83
2018-06-10T01:03:38.888Z,5.77
2018-06-10T01:06:06.154Z,5.20
2018-06-10T01:08:33.381Z,5.20
2018-06-10T01:11:00.633Z,4.70
2018-06-10T01:13:27.865Z,5.00
2018-06-10T01:15:55.101Z,5.13
2018-06-10T01:18:22.320Z,4.70
2018-06-10T01:20:49.564Z,4.87
2018-06-10T01:23:16.801Z,4.20
2018-06-10T01:25:44.050Z,4.87
2018-06-10T01:28:11.302Z,4.63
2018-06-10T01:30:38.533Z,5.70
2018-06-10T01:33:05.805Z,5.20
2018-06-10T01:35:33.074Z,5.00
2018-06-10T01:38:00.299Z,5.27
2018-06-10T01:40:27.530Z,4.70
2018-06-10T01:42:54.756Z,5.30
2018-06-10T01:45:22.003Z,4.80
2018-06-10T01:47:49.241Z,4.73
2018-06-10T01:50:16.485Z,4.57
2018-06-10T01:52:43.737Z,4.73
2018-06-10T01:55:10.993Z,5.03
2018-06-10T01:57:38.246Z,4.73
2018-06-10T02:00:05.502Z,4.60
2018-06-10T02:02:32.974Z,5.00
2018-06-10T02:05:00.210Z,4.67
2018-06-10T02:07:27.441Z,4.70
2018-06-10T02:09:54.662Z,4.90
2018-06-10T02:12:21.907Z,3.90
2018-06-10T02:14:49.145Z,4.77
2018-06-10T02:17:16.418Z,4.20
2018-06-10T02:19:43.707Z,4.10
2018-06-10T02:22:10.950Z,4.67
2018-06-10T02:24:38.205Z,4.30
2018-06-10T02:27:05.446Z,4.63
2018-06-10T02:29:32.711Z,4.70
2018-06-10T02:31:59.966Z,4.00
2018-06-10T02:34:27.271Z,3.70
2018-06-10T02:36:54.522Z,4.17
2018-06-10T02:39:21.789Z,4.50
2018-06-10T02:41:49.040Z,4.10
2018-06-10T02:44:16.297Z,4.37
2018-06-10T02:46:43.570Z,4.37
2018-06-10T02:49:10.788Z,5.17
2018-06-10T02:51:38.045Z,4.50
2018-06-10T02:54:05.311Z,4.80
2018-06-10T02:56:32.565Z,5.37
2018-06-10T02:58:59.825Z,5.70
2018-06-10T03:01:27.062Z,5.20
2018-06-10T03:03:54.306Z,5.73
2018-06-10T03:06:21.569Z,5.20
2018-06-10T03:08:48.822Z,5.40
2018-06-10T03:11:16.082Z,5.70
2018-06-10T03:13:43.337Z,5.90
2018-06-10T03:16:10.605Z,5.93
2018-06-10T03:18:37.852Z,6.30
2018-06-10T03:21:05.121Z,6.20
2018-06-10T03:23:32.369Z,6.03
2018-06-10T03:25:59.620Z,5.43
2018-06-10T03:28:26.862Z,6.17
2018-06-10T03:30:54.109Z,6.03
2018-06-10T03:33:21.365Z,5.80
2018-06-10T03:35:48.623Z,5.40
2018-06-10T03:38:15.853Z,6.30
2018-06-10T03:40:43.139Z,6.30
2018-06-10T03:43:10.371Z,5.60
2018-06-10T03:45:37.638Z,5.20
2018-06-10T03:48:04.902Z,6.10
2018-06-10T03:50:32.162Z,5.70
2018-06-10T03:52:59.389Z,5.73
2018-06-10T03:55:26.625Z,5.30
2018-06-10T03:57:53.864Z,5.30
2018-06-10T04:00:21.101Z,5.77
2018-06-10T04:02:48.353Z,6.93
2018-06-10T04:05:15.601Z,4.80
2018-06-10T04:07:42.841Z,4.90
2018-06-10T04:10:10.103Z,5.10
2018-06-10T04:12:37.354Z,5.70
2018-06-10T04:15:04.606Z,5.60
2018-06-10T04:17:31.838Z,4.87
2018-06-10T04:19:59.110Z,5.80
2018-06-10T04:22:26.372Z,4.97
2018-06-10T04:24:53.642Z,6.67
2018-06-10T04:27:20.881Z,5.67
2018-06-10T04:29:48.125Z,5.20
2018-06-10T04:32:15.393Z,5.60
2018-06-10T04:34:42.622Z,5.10
2018-06-10T04:37:09.890Z,5.17
2018-06-10T04:39:37.130Z,5.57
2018-06-10T04:42:04.415Z,5.47
2018-06-10T04:44:31.665Z,5.20
2018-06-10T04:46:58.921Z,6.07
2018-06-10T04:49:26.161Z,6.07
2018-06-10T04:51:53.423Z,4.77
2018-06-10T04:54:20.658Z,5.67
2018-06-10T04:56:47.911Z,5.50
2018-06-10T04:59:15.169Z,5.87
2018-06-10T05:01:42.433Z,5.60
2018-06-10T05:04:09.679Z,5.37
2018-06-10T05:06:36.925Z,4.10
2018-06-10T05:09:05.651Z,4.70
2018-06-10T05:11:32.910Z,5.50
2018-06-10T05:14:00.141Z,4.50
2018-06-10T05:16:27.385Z,5.13
2018-06-10T05:18:54.626Z,4.93
2018-06-10T05:21:21.875Z,4.47
2018-06-10T05:23:49.137Z,5.20
2018-06-10T05:26:16.414Z,4.60
2018-06-10T05:28:43.663Z,5.90
2018-06-10T05:31:10.917Z,5.00
2018-06-10T05:33:38.177Z,5.07
2018-06-10T05:36:05.467Z,5.03
2018-06-10T05:38:32.720Z,5.10
2018-06-10T05:40:59.958Z,4.97
2018-06-10T05:43:27.214Z,4.00
2018-06-10T05:45:54.454Z,5.30
2018-06-10T05:48:21.698Z,4.30
2018-06-10T05:50:48.954Z,4.10
2018-06-10T05:53:16.229Z,4.13
2018-06-10T05:55:43.481Z,4.57
2018-06-10T05:58:10.733Z,4.30
2018-06-10T06:00:37.981Z,3.97
2018-06-10T06:03:05.222Z,3.97
2018-06-10T06:05:32.567Z,3.97
2018-06-10T06:07:59.840Z,3.90
2018-06-10T06:10:27.102Z,3.87
2018-06-10T06:12:54.369Z,3.67
2018-06-10T06:15:21.637Z,4.17
2018-06-10T06:17:48.888Z,4.20
2018-06-10T06:20:16.122Z,4.50
2018-06-10T06:22:43.366Z,4.60
2018-06-10T06:25:10.660Z,3.90
2018-06-10T06:27:37.974Z,3.97
2018-06-10T06:30:05.264Z,3.40
2018-06-10T06:32:32.525Z,4.10
2018-06-10T06:34:59.795Z,4.40
2018-06-10T06:37:27.064Z,3.73
2018-06-10T06:39:54.329Z,4.27
2018-06-10T06:42:21.582Z,4.37
2018-06-10T06:44:48.848Z,4.90
2018-06-10T06:47:16.103Z,4.30
2018-06-10T06:49:43.341Z,4.80
2018-06-10T06:52:10.647Z,4.80
2018-06-10T06:54:37.909Z,5.20
2018-06-10T06:57:05.213Z,5.10
2018-06-10T06:59:32.478Z,4.90
2018-06-10T07:01:59.746Z,4.63
2018-06-10T07:04:27.038Z,5.13
2018-06-10T07:06:54.264Z,5.10
2018-06-10T07:09:21.729Z,5.00
2018-06-10T07:11:48.966Z,4.57
2018-06-10T07:14:16.221Z,5.07
2018-06-10T07:16:43.467Z,5.03
2018-06-10T07:19:10.721Z,4.60
2018-06-10T07:21:37.960Z,5.20
2018-06-10T07:24:05.258Z,4.70
2018-06-10T07:26:32.509Z,6.03
2018-06-10T07:28:59.767Z,6.40
2018-06-10T07:31:27.027Z,5.30
2018-06-10T07:33:54.295Z,5.00
2018-06-10T07:36:21.540Z,5.57
2018-06-10T07:38:48.833Z,5.60
2018-06-10T07:41:16.098Z,5.70
2018-06-10T07:43:43.462Z,5.70
2018-06-10T07:46:10.724Z,5.60
2018-06-10T07:48:38.070Z,5.60
2018-06-10T07:51:05.446Z,4.97
2018-06-10T07:53:32.702Z,5.50
2018-06-10T07:55:59.986Z,5.67
2018-06-10T07:58:27.257Z,5.00
2018-06-10T08:00:54.494Z,5.57
2018-06-10T08:03:21.806Z,4.90
2018-06-10T08:05:49.158Z,6.00
2018-06-10T08:08:16.404Z,5.13
2018-06-10T08:10:43.685Z,5.63
2018-06-10T08:13:10.945Z,6.10
2018-06-10T08:15:38.198Z,6.07
2018-06-10T08:18:05.478Z,5.53
2018-06-10T08:20:32.764Z,5.60
2018-06-10T08:23:00.037Z,6.10
2018-06-10T08:25:27.309Z,5.50
2018-06-10T08:27:54.580Z,5.63
2018-06-10T08:30:21.848Z,6.07
2018-06-10T08:32:49.180Z,5.73
2018-06-10T08:35:16.443Z,5.40
2018-06-10T08:37:43.727Z,6.23
2018-06-10T08:40:11.014Z,5.97
2018-06-10T08:42:38.243Z,6.00
2018-06-10T08:45:05.617Z,5.23
2018-06-10T08:47:32.973Z,6.07
2018-06-10T08:50:00.249Z,6.80
2018-06-10T08:52:27.525Z,6.50
2018-06-10T08:54:54.811Z,6.40
2018-06-10T08:57:22.047Z,5.77
2018-06-10T08:59:49.321Z,7.17
2018-06-10T09:02:16.574Z,5.50
2018-06-10T09:04:43.845Z,6.13
2018-06-10T09:07:11.085Z,6.67
2018-06-10T09:09:38.370Z,6.47
2018-06-10T09:12:05.638Z,6.80
2018-06-10T09:14:32.881Z,7.30
2018-06-10T09:17:00.111Z,6.37
2018-06-10T09:19:27.361Z,6.20
2018-06-10T09:21:54.670Z,6.67
2018-06-10T09:24:21.926Z,6.50
2018-06-10T09:26:49.189Z,5.13
2018-06-10T09:29:16.435Z,5.97
2018-06-10T09:31:43.718Z,6.87
2018-06-10T09:34:11.076Z,6.93
2018-06-10T09:36:38.332Z,6.43
2018-06-10T09:39:06.889Z,7.43
2018-06-10T09:41:34.212Z,6.63
2018-06-10T09:44:01.565Z,7.40
2018-06-10T09:46:28.878Z,7.20
2018-06-10T09:48:56.193Z,7.50
2018-06-10T09:51:23.435Z,8.00
2018-06-10T09:53:50.761Z,6.87
2018-06-10T09:56:18.065Z,8.50
2018-06-10T09:58:45.314Z,7.40
2018-06-10T10:01:12.689Z,7.20
2018-06-10T10:03:40.027Z,6.80
2018-06-10T10:06:07.326Z,6.50
2018-06-10T10:08:34.622Z,7.10
2018-06-10T10:11:01.924Z,6.90
2018-06-10T10:13:29.196Z,7.07
2018-06-10T10:15:56.503Z,7.37
2018-06-10T10:18:23.905Z,7.13
2018-06-10T10:20:51.161Z,7.20
2018-06-10T10:23:18.412Z,6.97
2018-06-10T10:25:45.725Z,6.27
2018-06-10T10:28:13.081Z,6.33
2018-06-10T10:30:40.321Z,6.10
2018-06-10T10:33:07.616Z,7.20
2018-06-10T10:35:34.869Z,7.03
2018-06-10T10:38:02.348Z,7.23
2018-06-10T10:40:29.640Z,7.20
2018-06-10T10:42:56.919Z,6.97
2018-06-10T10:45:24.202Z,5.60
2018-06-10T10:47:51.474Z,7.43
2018-06-10T10:50:18.761Z,7.30
2018-06-10T10:52:46.046Z,6.50
2018-06-10T10:55:13.306Z,6.50
2018-06-10T10:57:40.581Z,6.77
2018-06-10T11:00:07.855Z,6.40
2018-06-10T11:02:35.152Z,7.40
2018-06-10T11:05:02.414Z,7.40
2018-06-10T11:07:29.749Z,6.50
2018-06-10T11:09:57.014Z,6.10
2018-06-10T11:12:24.295Z,5.80
2018-06-10T11:14:51.578Z,6.50
2018-06-10T11:17:19.098Z,11.70
2018-06-10T11:19:46.453Z,10.70
2018-06-10T11:22:13.727Z,8.40
2018-06-10T11:24:40.988Z,7.83
2018-06-10T11:27:08.319Z,6.70
2018-06-10T11:29:35.744Z,6.10
2018-06-10T11:32:03.068Z,6.67
2018-06-10T11:34:30.579Z,6.30
2018-06-10T11:36:57.951Z,6.37
2018-06-10T11:39:25.227Z,5.80
2018-06-10T11:41:52.494Z,5.80
2018-06-10T11:44:19.955Z,6.60
2018-06-10T11:46:47.237Z,5.43
2018-06-10T11:49:14.522Z,6.33
2018-06-10T11:51:41.882Z,6.33
2018-06-10T11:54:09.158Z,6.20
2018-06-10T11:56:36.433Z,6.10
2018-06-10T11:59:03.752Z,6.30
2018-06-10T12:01:31.034Z,6.00
2018-06-10T12:03:58.329Z,6.47
2018-06-10T12:06:25.582Z,6.20
2018-06-10T12:08:52.866Z,4.77
2018-06-10T12:11:20.122Z,5.97
2018-06-10T12:13:47.432Z,6.07
2018-06-10T12:16:14.926Z,4.83
2018-06-10T12:18:42.302Z,4.63
2018-06-10T12:21:09.567Z,4.43
2018-06-10T12:23:36.985Z,4.00
2018-06-10T12:26:04.256Z,4.53
2018-06-10T12:28:31.494Z,4.83
2018-06-10T12:30:58.882Z,4.90
2018-06-10T12:33:26.144Z,4.80
2018-06-10T12:35:53.405Z,4.57
2018-06-10T12:38:20.638Z,5.20
2018-06-10T12:40:48.015Z,4.87
2018-06-10T12:43:15.270Z,4.10
2018-06-10T12:45:42.522Z,4.77
2018-06-10T12:48:09.794Z,5.07
2018-06-10T12:50:37.062Z,4.90
2018-06-10T12:53:04.467Z,4.70
2018-06-10T12:55:31.722Z,4.97
2018-06-10T12:57:58.985Z,4.67
2018-06-10T13:00:26.274Z,5.70
2018-06-10T13:02:53.566Z,6.20
2018-06-10T13:05:20.833Z,6.70
2018-06-10T13:07:48.090Z,7.20
2018-06-10T13:10:15.359Z,6.90
2018-06-10T13:12:42.640Z,7.03
2018-06-10T13:15:09.931Z,6.70
2018-06-10T13:17:37.187Z,5.87
2018-06-10T13:20:04.458Z,5.90
2018-06-10T13:22:31.735Z,6.57
2018-06-10T13:24:59.009Z,7.43
2018-06-10T13:27:32.924Z,7.10
2018-06-10T13:30:00.364Z,6.50
2018-06-10T13:32:27.597Z,7.10
2018-06-10T13:34:54.873Z,7.23
2018-06-10T13:37:22.123Z,7.03
2018-06-10T13:39:49.405Z,6.50
2018-06-10T13:42:16.722Z,6.17
2018-06-10T13:44:44.009Z,6.17
2018-06-10T13:47:11.333Z,6.70
2018-06-10T13:49:38.648Z,6.80
2018-06-10T13:52:05.974Z,6.60
2018-06-10T13:54:33.214Z,7.23
2018-06-10T13:57:02.272Z,7.30
2018-06-10T13:59:29.527Z,9.10
2018-06-10T14:01:56.813Z,7.43
2018-06-10T14:04:24.094Z,6.10
2018-06-10T14:06:51.455Z,7.20
2018-06-10T14:09:18.971Z,7.17
2018-06-10T14:11:46.254Z,7.10
2018-06-10T14:14:13.574Z,7.00
2018-06-10T14:16:40.829Z,6.87
2018-06-10T14:19:08.132Z,6.90
2018-06-10T14:21:35.495Z,6.40
2018-06-10T14:24:02.931Z,6.10
2018-06-10T14:26:30.238Z,8.40
2018-06-10T14:28:57.531Z,6.47
2018-06-10T14:31:26.906Z,5.77
2018-06-10T14:33:54.189Z,5.63
2018-06-10T14:36:21.474Z,4.80
2018-06-10T14:38:48.747Z,4.33
2018-06-10T14:41:16.007Z,4.13
2018-06-10T14:43:43.305Z,4.97
2018-06-10T14:46:10.654Z,4.60
2018-06-10T14:48:37.961Z,5.23
2018-06-10T14:51:05.226Z,5.60
2018-06-10T14:53:32.488Z,4.93
2018-06-10T14:55:59.751Z,3.40
2018-06-10T14:58:27.042Z,4.00
2018-06-10T15:00:54.327Z,3.77
2018-06-10T15:03:21.590Z,3.87
2018-06-10T15:05:48.872Z,4.60
2018-06-10T15:08:16.126Z,4.30
2018-06-10T15:10:43.379Z,4.10
2018-06-10T15:13:10.697Z,4.20
2018-06-10T15:15:38.008Z,3.90
2018-06-10T15:18:05.258Z,4.17
2018-06-10T15:20:32.501Z,7.60
2018-06-10T15:22:59.776Z,4.30
2018-06-10T15:25:27.036Z,3.70
2018-06-10T15:27:54.302Z,4.20
2018-06-10T15:30:21.634Z,3.40
2018-06-10T15:32:48.917Z,3.87
2018-06-10T15:35:16.164Z,3.37
2018-06-10T15:37:43.447Z,3.70
2018-06-10T15:40:10.725Z,3.70
2018-06-10T15:42:38.008Z,4.40
2018-06-10T15:45:05.424Z,3.87
2018-06-10T15:47:32.923Z,3.93
2018-06-10T15:50:00.236Z,4.00
2018-06-10T15:52:27.781Z,3.40
2018-06-10T15:54:55.213Z,3.80
2018-06-10T15:57:22.488Z,3.60
2018-06-10T15:59:49.736Z,3.03
2018-06-10T16:02:17.076Z,2.97
2018-06-10T16:04:44.573Z,3.30
2018-06-10T16:07:11.855Z,3.30
2018-06-10T16:09:39.190Z,3.57
2018-06-10T16:12:06.498Z,3.83
2018-06-10T16:14:33.766Z,3.40
2018-06-10T16:17:01.121Z,3.50
2018-06-10T16:19:28.595Z,3.53
2018-06-10T16:21:55.861Z,3.30
2018-06-10T16:24:23.225Z,3.47
2018-06-10T16:26:50.501Z,3.40
2018-06-10T16:29:17.805Z,3.10
2018-06-10T16:31:45.080Z,3.30
2018-06-10T16:34:12.519Z,3.63
2018-06-10T16:36:39.837Z,3.17
2018-06-10T16:39:08.662Z,3.50
2018-06-10T16:41:36.258Z,3.17
2018-06-10T16:44:03.535Z,3.63
2018-06-10T16:46:30.846Z,3.70
2018-06-10T16:48:58.096Z,3.60
2018-06-10T16:51:25.367Z,4.27
2018-06-10T16:53:52.729Z,4.43
2018-06-10T16:56:19.987Z,3.70
2018-06-10T16:58:47.271Z,3.53
2018-06-10T17:01:14.545Z,4.50
2018-06-10T17:03:41.806Z,4.00
2018-06-10T17:06:09.082Z,3.27
2018-06-10T17:08:36.442Z,4.03
2018-06-10T17:11:04.325Z,4.10
2018-06-10T17:13:31.560Z,3.63
2018-06-10T17:15:58.832Z,4.20
2018-06-10T17:18:26.082Z,3.83
2018-06-10T17:20:53.386Z,3.30
2018-06-10T17:23:20.683Z,3.87
2018-06-10T17:25:47.932Z,3.97
2018-06-10T17:28:15.307Z,3.80
2018-06-10T17:30:42.553Z,4.10
2018-06-10T17:33:09.841Z,4.47
2018-06-10T17:35:37.134Z,3.50
2018-06-10T17:38:04.429Z,3.77
2018-06-10T17:40:31.726Z,3.83
2018-06-10T17:42:58.990Z,3.10
2018-06-10T17:45:26.297Z,3.23
2018-06-10T17:47:53.518Z,2.77
2018-06-10T17:50:20.825Z,3.57
2018-06-10T17:52:48.231Z,4.10
2018-06-10T17:55:15.621Z,3.20
2018-06-10T17:57:42.972Z,3.43
2018-06-10T18:00:10.346Z,3.43
2018-06-10T18:02:37.637Z,3.20
2018-06-10T18:05:04.895Z,3.60
2018-06-10T18:07:32.296Z,4.00
2018-06-10T18:09:59.596Z,3.57
2018-06-10T18:12:26.881Z,3.80
2018-06-10T18:14:54.166Z,3.53
2018-06-10T18:17:21.660Z,3.13
2018-06-10T18:19:48.946Z,6.13
2018-06-10T18:22:16.294Z,3.80
2018-06-10T18:24:43.588Z,3.33
2018-06-10T18:27:10.837Z,3.53
2018-06-10T18:29:38.103Z,3.80
2018-06-10T18:32:05.453Z,3.80
2018-06-10T18:34:32.816Z,3.23
2018-06-10T18:37:00.161Z,3.70
2018-06-10T18:39:27.581Z,3.37
2018-06-10T18:41:54.887Z,3.60
2018-06-10T18:44:22.181Z,3.83
2018-06-10T18:46:49.450Z,5.50
2018-06-10T18:49:16.749Z,6.30
2018-06-10T18:51:44.033Z,5.50
2018-06-10T18:54:11.330Z,16.77
2018-06-10T18:56:38.668Z,9.07
2018-06-10T18:59:06.051Z,7.20
2018-06-10T19:01:33.527Z,6.43
2018-06-10T19:04:00.886Z,6.60
2018-06-10T19:06:28.239Z,5.20
2018-06-10T19:08:55.858Z,5.70
2018-06-10T19:11:23.279Z,6.70
2018-06-10T19:13:50.573Z,6.30
2018-06-10T19:16:17.877Z,5.57
2018-06-10T19:18:45.197Z,5.47
2018-06-10T19:21:12.551Z,14.77
2018-06-10T19:23:40.102Z,10.70
2018-06-10T19:26:07.552Z,6.50
2018-06-10T19:28:34.882Z,5.03
2018-06-10T19:31:02.306Z,6.67
2018-06-10T19:33:29.624Z,9.97
2018-06-10T19:35:57.004Z,8.27
2018-06-10T19:38:24.287Z,7.07
2018-06-10T19:40:51.644Z,8.47
2018-06-10T19:43:18.972Z,15.33
2018-06-10T19:45:46.258Z,7.73
2018-06-10T19:48:13.617Z,5.93
2018-06-10T19:50:41.072Z,5.97
2018-06-10T19:53:08.392Z,5.90
2018-06-10T19:55:35.763Z,9.80
2018-06-10T19:58:03.141Z,8.37
2018-06-10T20:00:30.473Z,6.60
2018-06-10T20:02:57.829Z,5.90
2018-06-10T20:05:25.160Z,6.07
2018-06-10T20:07:52.458Z,5.10
2018-06-10T20:10:19.778Z,5.40
2018-06-10T20:12:47.237Z,4.60
2018-06-10T20:15:14.723Z,4.93
2018-06-10T20:17:42.181Z,5.30
2018-06-10T20:20:09.480Z,7.00
2018-06-10T20:22:36.823Z,5.93
2018-06-10T20:25:04.311Z,6.37
2018-06-10T20:27:31.815Z,6.60
2018-06-10T20:29:59.238Z,5.87
2018-06-10T20:32:26.819Z,5.47
2018-06-10T20:34:54.105Z,5.77
2018-06-10T20:37:21.430Z,6.17
2018-06-10T20:39:48.786Z,5.20
2018-06-10T20:42:16.131Z,5.33
2018-06-10T20:44:43.617Z,6.03
2018-06-10T20:47:11.036Z,5.50
2018-06-10T20:49:38.450Z,5.50
2018-06-10T20:52:05.867Z,5.40
2018-06-10T20:54:33.187Z,5.93
2018-06-10T20:57:00.493Z,5.40
2018-06-10T20:59:27.761Z,6.20
2018-06-10T21:01:55.045Z,5.90
2018-06-10T21:04:22.323Z,4.90
2018-06-10T21:06:49.794Z,5.00
2018-06-10T21:09:17.258Z,5.50
2018-06-10T21:11:44.908Z,5.40
2018-06-10T21:14:12.454Z,5.30
2018-06-10T21:16:39.762Z,5.80
2018-06-10T21:19:07.113Z,5.67
2018-06-10T21:21:34.404Z,5.63
2018-06-10T21:24:01.802Z,7.00
2018-06-10T21:26:29.188Z,5.83
2018-06-10T21:28:56.545Z,5.73
2018-06-10T21:31:23.827Z,5.10
2018-06-10T21:33:51.126Z,5.13
2018-06-10T21:36:18.730Z,5.80
2018-06-10T21:38:46.007Z,5.20
2018-06-10T21:41:13.309Z,5.40
2018-06-10T21:43:40.569Z,5.07
2018-06-10T21:46:08.751Z,5.40
2018-06-10T21:48:36.169Z,5.70
2018-06-10T21:51:03.392Z,6.30
2018-06-10T21:53:30.706Z,5.77
2018-06-10T21:55:57.982Z,5.30
2018-06-10T21:58:25.308Z,5.23
2018-06-10T22:00:53.065Z,5.20
2018-06-10T22:03:20.342Z,4.43
2018-06-10T22:05:47.615Z,5.20
2018-06-10T22:08:14.987Z,5.60
2018-06-10T22:10:42.259Z,5.87
2018-06-10T22:13:09.552Z,5.20
2018-06-10T22:15:36.913Z,5.87
2018-06-10T22:18:04.140Z,5.83
2018-06-10T22:20:31.416Z,5.87
2018-06-10T22:22:58.685Z,5.10
2018-06-10T22:25:25.939Z,5.60
2018-06-10T22:27:53.182Z,6.17
2018-06-10T22:30:20.434Z,5.20
2018-06-10T22:32:47.686Z,5.70
2018-06-10T22:35:14.948Z,5.63
2018-06-10T22:37:42.208Z,5.50
2018-06-10T22:40:09.433Z,5.00
2018-06-10T22:42:36.694Z,5.07
2018-06-10T22:45:04.354Z,5.53
2018-06-10T22:47:31.620Z,6.07
2018-06-10T22:49:58.897Z,5.47
2018-06-10T22:52:26.293Z,5.70
2018-06-10T22:54:53.549Z,5.90
2018-06-10T22:57:20.814Z,6.03
2018-06-10T22:59:48.070Z,5.63
2018-06-10T23:02:15.328Z,5.47
2018-06-10T23:04:42.602Z,5.30
2018-06-10T23:07:09.913Z,4.97
2018-06-10T23:09:37.291Z,6.20
2018-06-10T23:12:04.593Z,6.10
2018-06-10T23:14:31.840Z,6.43
2018-06-10T23:16:59.082Z,5.23
2018-06-10T23:19:26.343Z,6.07
2018-06-10T23:21:53.603Z,5.60
2018-06-10T23:24:20.846Z,5.30
2018-06-10T23:26:48.097Z,5.13
2018-06-10T23:29:15.350Z,5.37
2018-06-10T23:31:42.695Z,5.53
2018-06-10T23:34:09.942Z,5.53
2018-06-10T23:36:37.368Z,5.37
2018-06-10T23:39:06.055Z,5.60
2018-06-10T23:41:33.294Z,5.47
2018-06-10T23:44:00.546Z,6.47
2018-06-10T23:46:27.786Z,4.90
2018-06-10T23:48:55.051Z,5.73
2018-06-10T23:51:22.289Z,5.63
2018-06-10T23:53:49.558Z,5.50
2018-06-10T23:56:16.801Z,6.03
2018-06-10T23:58:44.074Z,5.67
